Time;durP1;ratioP1;P1;durP2;ratioP2;P2;SDS_P1;SDS_P2;PMS_P1;PMS_P2;Temp;Humidity;BMP_temperature;BMP_pressure;BME280_temperature;BME280_humidity;BME280_pressure;Samples;Min_cycle;Max_cycle;Signal;HPM_P1;HPM_P2
2024/03/14 00:00:29;;;;;;;10.80;7.67;;;10.20;99.90;;;;;;5107539;28;20481;-62
2024/03/14 00:02:57;;;;;;;7.17;6.57;;;10.10;99.90;;;;;;5100251;28;20454;-62
2024/03/14 00:05:26;;;;;;;8.40;7.37;;;10.10;99.90;;;;;;5109388;28;20470;-62
2024/03/14 00:07:57;;;;;;;10.30;7.67;;;10.00;99.90;;;;;;5092213;28;21027;-61
2024/03/14 00:10:24;;;;;;;8.00;7.20;;;10.00;99.90;;;;;;5094024;28;20442;-62
2024/03/14 00:12:51;;;;;;;8.07;7.23;;;10.00;99.90;;;;;;5094597;28;20447;-62
2024/03/14 00:15:18;;;;;;;7.97;7.20;;;9.90;99.90;;;;;;5110001;28;20498;-62
2024/03/14 00:17:46;;;;;;;8.97;7.77;;;9.90;99.90;;;;;;5099693;28;20552;-62
2024/03/14 00:20:13;;;;;;;11.60;9.93;;;9.80;99.90;;;;;;5106340;28;20572;-62
2024/03/14 00:22:40;;;;;;;10.10;7.70;;;9.70;99.90;;;;;;5094080;28;20469;-62
2024/03/14 00:25:09;;;;;;;7.50;6.43;;;9.70;99.90;;;;;;5094488;28;20468;-62
2024/03/14 00:27:38;;;;;;;9.03;8.20;;;9.60;99.90;;;;;;5093068;28;20442;-61
2024/03/14 00:30:08;;;;;;;9.80;8.17;;;9.50;99.90;;;;;;5092213;28;20434;-62
2024/03/14 00:32:35;;;;;;;9.20;7.73;;;9.50;99.90;;;;;;5097594;28;20496;-62
2024/03/14 00:35:02;;;;;;;9.53;6.67;;;9.40;99.90;;;;;;5112393;28;20472;-62
2024/03/14 00:37:29;;;;;;;8.03;7.27;;;9.30;99.90;;;;;;5112283;28;20473;-61
2024/03/14 00:39:56;;;;;;;8.03;6.67;;;9.30;99.90;;;;;;5112194;28;20487;-62
2024/03/14 00:42:24;;;;;;;11.53;8.30;;;9.20;99.90;;;;;;5114040;28;20438;-61
2024/03/14 00:44:51;;;;;;;9.63;7.17;;;9.20;99.90;;;;;;5114143;28;20549;-62
2024/03/14 00:47:18;;;;;;;8.80;7.30;;;9.10;99.90;;;;;;5114217;28;20441;-61
2024/03/14 00:49:45;;;;;;;8.80;6.30;;;9.00;99.90;;;;;;5114054;28;20438;-61
2024/03/14 00:52:12;;;;;;;10.27;8.60;;;9.00;99.90;;;;;;5114397;28;20442;-61
2024/03/14 00:54:39;;;;;;;11.30;8.40;;;8.90;99.90;;;;;;5114161;28;20490;-61
2024/03/14 00:57:06;;;;;;;17.70;8.03;;;8.80;99.90;;;;;;5114115;28;20441;-61
2024/03/14 00:59:33;;;;;;;8.83;6.97;;;8.80;99.90;;;;;;5113875;28;20454;-60
2024/03/14 01:02:00;;;;;;;10.37;7.10;;;8.70;99.90;;;;;;5113682;28;20812;-61
2024/03/14 01:04:29;;;;;;;9.40;6.77;;;8.70;99.90;;;;;;5113791;28;20478;-60
2024/03/14 01:06:56;;;;;;;14.27;8.40;;;8.60;99.90;;;;;;5114126;28;20495;-61
2024/03/14 01:09:25;;;;;;;9.63;6.87;;;8.50;99.90;;;;;;5113799;28;20482;-62
2024/03/14 01:11:53;;;;;;;9.38;8.45;;;8.50;99.90;;;;;;5113497;28;20445;-62
2024/03/14 01:14:21;;;;;;;8.85;7.65;;;8.40;99.90;;;;;;5113640;28;20236;-62
2024/03/14 01:16:49;;;;;;;10.63;7.50;;;8.40;99.90;;;;;;5113932;28;20601;-62
2024/03/14 01:19:17;;;;;;;9.65;8.27;;;8.30;99.90;;;;;;5113532;28;20458;-61
2024/03/14 01:21:44;;;;;;;8.27;6.93;;;8.20;99.90;;;;;;5113273;28;20228;-62
2024/03/14 01:24:11;;;;;;;10.27;8.10;;;8.20;99.90;;;;;;5113569;28;20599;-61
2024/03/14 01:26:37;;;;;;;9.25;7.53;;;8.10;99.90;;;;;;5113592;28;20208;-61
2024/03/14 01:29:06;;;;;;;9.27;8.43;;;8.10;99.90;;;;;;5113316;28;20226;-61
2024/03/14 01:31:34;;;;;;;8.45;7.10;;;8.00;99.90;;;;;;5113385;28;20449;-61
2024/03/14 01:34:01;;;;;;;8.37;6.33;;;8.00;99.90;;;;;;5113447;28;20238;-61
2024/03/14 01:36:28;;;;;;;12.20;8.20;;;7.90;99.90;;;;;;5113480;28;20453;-61
2024/03/14 01:38:55;;;;;;;8.80;7.83;;;7.90;99.90;;;;;;5113151;28;20445;-61
2024/03/14 01:41:22;;;;;;;15.75;7.70;;;7.80;99.90;;;;;;5112947;28;20865;-62
2024/03/14 01:43:58;;;;;;;11.70;8.20;;;7.80;99.90;;;;;;5112348;28;21214;-62
2024/03/14 01:46:27;;;;;;;9.63;7.03;;;7.80;99.90;;;;;;5108356;28;20272;-61
2024/03/14 01:48:54;;;;;;;9.40;7.38;;;7.80;99.90;;;;;;5108223;28;20247;-60
2024/03/14 01:51:22;;;;;;;11.60;8.35;;;7.70;99.90;;;;;;5112783;28;20197;-61
2024/03/14 01:53:50;;;;;;;8.65;6.90;;;7.70;99.90;;;;;;5096299;28;20748;-61
2024/03/14 01:56:17;;;;;;;10.98;7.70;;;7.70;99.90;;;;;;5095973;28;20209;-61
2024/03/14 01:58:44;;;;;;;10.63;7.57;;;7.70;99.90;;;;;;5096087;28;20201;-62
2024/03/14 02:01:12;;;;;;;10.77;7.50;;;7.70;99.90;;;;;;5095224;28;20228;-60
2024/03/14 02:03:40;;;;;;;15.75;8.52;;;7.70;99.90;;;;;;5095681;28;20208;-60
2024/03/14 02:06:08;;;;;;;11.38;7.55;;;7.70;99.90;;;;;;5095980;28;20207;-59
2024/03/14 02:08:35;;;;;;;9.35;7.75;;;7.70;99.90;;;;;;5095984;28;20204;-60
2024/03/14 02:11:03;;;;;;;11.02;8.75;;;7.70;99.90;;;;;;5095194;28;20236;-60
2024/03/14 02:13:31;;;;;;;10.15;6.95;;;7.70;99.90;;;;;;5095845;28;20200;-61
2024/03/14 02:15:58;;;;;;;13.50;8.15;;;7.70;99.90;;;;;;5095811;28;20290;-61
2024/03/14 02:18:25;;;;;;;11.50;9.35;;;7.70;99.90;;;;;;5095540;28;20237;-61
2024/03/14 02:20:52;;;;;;;10.60;7.85;;;7.70;99.90;;;;;;5111948;28;20220;-61
2024/03/14 02:23:19;;;;;;;10.70;8.13;;;7.70;99.90;;;;;;5095276;28;20207;-61
2024/03/14 02:25:46;;;;;;;12.80;7.60;;;7.70;99.90;;;;;;5095581;28;20227;-60
2024/03/14 02:28:13;;;;;;;11.10;9.90;;;7.70;99.90;;;;;;5095616;28;20204;-61
2024/03/14 02:30:40;;;;;;;10.68;7.85;;;7.70;99.90;;;;;;5095318;28;20201;-61
2024/03/14 02:33:08;;;;;;;7.88;7.13;;;7.80;99.90;;;;;;5095427;28;20234;-62
2024/03/14 02:35:35;;;;;;;10.50;7.57;;;7.80;99.90;;;;;;5095508;28;20224;-59
2024/03/14 02:38:02;;;;;;;11.27;9.37;;;7.80;99.90;;;;;;5095195;28;20525;-61
2024/03/14 02:40:29;;;;;;;11.02;7.63;;;7.80;99.90;;;;;;5094839;28;20574;-60
2024/03/14 02:42:56;;;;;;;8.38;7.25;;;7.80;99.90;;;;;;5095251;28;20208;-61
2024/03/14 02:45:24;;;;;;;14.20;8.90;;;7.80;99.90;;;;;;5095024;28;20224;-61
2024/03/14 02:47:51;;;;;;;9.35;7.78;;;7.80;99.90;;;;;;5094699;28;20645;-62
2024/03/14 02:50:18;;;;;;;11.00;7.83;;;7.80;99.90;;;;;;5094553;28;20231;-62
2024/03/14 02:52:47;;;;;;;9.65;7.20;;;7.80;99.90;;;;;;5095100;28;20454;-62
2024/03/14 02:55:14;;;;;;;11.30;8.82;;;7.80;99.90;;;;;;5094938;28;20601;-62
2024/03/14 02:57:41;;;;;;;12.70;9.20;;;7.80;99.90;;;;;;5094942;28;20226;-60
2024/03/14 03:00:11;;;;;;;11.88;8.30;;;7.80;99.90;;;;;;5094462;28;20696;-62
2024/03/14 03:02:39;;;;;;;10.25;8.70;;;7.90;99.90;;;;;;5095031;28;20300;-61
2024/03/14 03:05:07;;;;;;;11.60;7.75;;;7.90;99.90;;;;;;5090408;28;20271;-61
2024/03/14 03:07:34;;;;;;;9.25;7.13;;;7.90;99.90;;;;;;5107625;28;20208;-61
2024/03/14 03:10:01;;;;;;;8.82;7.30;;;7.90;99.90;;;;;;5107902;28;20670;-62
2024/03/14 03:12:28;;;;;;;11.18;8.60;;;7.90;99.90;;;;;;5108035;28;20211;-61
2024/03/14 03:14:55;;;;;;;13.45;9.35;;;7.90;99.90;;;;;;5107947;28;20332;-61
2024/03/14 03:17:22;;;;;;;11.77;9.23;;;8.00;99.90;;;;;;5107789;28;20201;-61
2024/03/14 03:19:49;;;;;;;11.55;7.47;;;8.00;99.90;;;;;;5107512;28;20215;-61
2024/03/14 03:22:16;;;;;;;13.60;9.80;;;8.00;99.90;;;;;;5107970;28;20221;-62
2024/03/14 03:24:42;;;;;;;9.65;7.70;;;8.00;99.90;;;;;;5107599;28;20236;-60
2024/03/14 03:27:14;;;;;;;9.20;7.30;;;8.00;99.90;;;;;;5107792;28;20295;-61
2024/03/14 03:29:40;;;;;;;8.53;6.23;;;8.10;99.90;;;;;;5106939;28;20458;-61
2024/03/14 03:32:07;;;;;;;8.70;6.33;;;8.00;99.90;;;;;;5107365;28;20988;-61
2024/03/14 03:34:32;;;;;;;8.97;7.57;;;8.10;99.90;;;;;;5107599;28;20490;-62
2024/03/14 03:36:59;;;;;;;13.60;8.87;;;8.10;99.90;;;;;;5107789;28;20478;-61
2024/03/14 03:39:27;;;;;;;11.33;7.53;;;8.10;99.90;;;;;;5107364;28;20447;-61
2024/03/14 03:41:54;;;;;;;14.27;8.10;;;8.10;99.90;;;;;;5107083;28;20482;-61
2024/03/14 03:44:21;;;;;;;9.25;7.65;;;8.10;99.90;;;;;;5107205;28;20459;-61
2024/03/14 03:46:47;;;;;;;9.83;8.10;;;8.10;99.90;;;;;;5107318;28;20209;-61
2024/03/14 03:49:15;;;;;;;9.57;8.43;;;8.20;99.90;;;;;;5107681;28;21021;-62
2024/03/14 03:51:41;;;;;;;11.70;9.73;;;8.20;99.90;;;;;;5107216;28;20522;-61
2024/03/14 03:54:07;;;;;;;12.90;10.57;;;8.20;99.90;;;;;;5107278;28;20499;-62
2024/03/14 03:56:34;;;;;;;10.00;9.07;;;8.20;99.90;;;;;;5107178;28;20525;-61
2024/03/14 03:59:00;;;;;;;11.00;8.40;;;8.20;99.90;;;;;;5107321;28;20457;-62
2024/03/14 04:01:27;;;;;;;11.23;8.13;;;8.20;99.90;;;;;;5107231;28;20894;-62
2024/03/14 04:03:54;;;;;;;10.75;8.07;;;8.20;99.90;;;;;;5107664;28;20887;-61
2024/03/14 04:06:21;;;;;;;10.15;9.05;;;8.20;99.90;;;;;;5107613;28;20262;-62
2024/03/14 04:08:48;;;;;;;13.00;9.00;;;8.20;99.90;;;;;;5106424;28;20201;-61
2024/03/14 04:11:15;;;;;;;10.43;8.00;;;8.20;99.90;;;;;;5106915;28;20205;-62
2024/03/14 04:13:42;;;;;;;8.80;7.57;;;8.20;99.90;;;;;;5106855;28;20455;-62
2024/03/14 04:16:08;;;;;;;10.00;8.27;;;8.20;99.90;;;;;;5106950;28;20529;-61
2024/03/14 04:18:39;;;;;;;10.60;7.50;;;8.20;99.90;;;;;;5105455;28;21015;-61
2024/03/14 04:21:07;;;;;;;13.32;7.80;;;8.20;99.90;;;;;;5106348;28;20478;-61
2024/03/14 04:23:35;;;;;;;10.52;6.93;;;8.20;99.90;;;;;;5106484;28;20205;-62
2024/03/14 04:26:03;;;;;;;12.05;9.45;;;8.20;99.90;;;;;;5107075;28;20215;-61
2024/03/14 04:28:33;;;;;;;14.68;9.73;;;8.20;99.90;;;;;;5106821;28;20208;-61
2024/03/14 04:31:00;;;;;;;11.65;8.27;;;8.20;99.90;;;;;;5106195;28;20201;-61
2024/03/14 04:33:27;;;;;;;9.70;8.50;;;8.20;99.90;;;;;;5106714;28;20751;-62
2024/03/14 04:35:56;;;;;;;10.27;6.87;;;8.20;99.90;;;;;;5106708;28;20470;-61
2024/03/14 04:38:23;;;;;;;12.83;9.00;;;8.20;99.90;;;;;;5106442;28;20853;-61
2024/03/14 04:40:50;;;;;;;11.60;7.50;;;8.20;99.90;;;;;;5106399;28;20443;-61
2024/03/14 04:43:18;;;;;;;10.35;7.43;;;8.20;99.90;;;;;;5106804;28;20942;-61
2024/03/14 04:45:45;;;;;;;11.48;9.05;;;8.20;99.90;;;;;;5106670;28;20994;-61
2024/03/14 04:48:12;;;;;;;9.93;8.37;;;8.10;99.90;;;;;;5106718;28;20736;-61
2024/03/14 04:50:40;;;;;;;12.80;10.47;;;8.10;99.90;;;;;;5106248;28;20449;-61
2024/03/14 04:53:09;;;;;;;9.55;7.50;;;8.10;99.90;;;;;;5106677;28;20443;-61
2024/03/14 04:55:36;;;;;;;8.83;7.87;;;8.10;99.90;;;;;;5106391;28;20726;-60
2024/03/14 04:58:03;;;;;;;11.18;7.32;;;8.00;99.90;;;;;;5106655;28;20447;-60
2024/03/14 05:00:31;;;;;;;9.55;7.80;;;8.00;99.90;;;;;;5106374;28;20205;-62
2024/03/14 05:02:58;;;;;;;8.60;7.30;;;8.00;99.90;;;;;;5106264;28;20232;-62
2024/03/14 05:05:25;;;;;;;21.48;9.45;;;8.00;99.90;;;;;;5106644;28;20471;-62
2024/03/14 05:07:53;;;;;;;10.55;8.52;;;8.00;99.90;;;;;;5106531;28;20666;-61
2024/03/14 05:10:20;;;;;;;12.03;9.13;;;8.00;99.90;;;;;;5106175;28;20234;-62
2024/03/14 05:12:47;;;;;;;9.20;7.47;;;7.90;99.90;;;;;;5106291;28;20450;-62
2024/03/14 05:15:14;;;;;;;9.50;6.83;;;7.90;99.90;;;;;;5106318;28;20546;-62
2024/03/14 05:17:41;;;;;;;9.73;7.75;;;7.90;99.90;;;;;;5106242;28;20865;-61
2024/03/14 05:20:10;;;;;;;11.82;8.50;;;8.00;99.90;;;;;;5109315;28;20205;-61
2024/03/14 05:22:38;;;;;;;8.73;7.68;;;8.00;99.90;;;;;;5109969;28;20229;-61
2024/03/14 05:25:07;;;;;;;11.88;8.80;;;8.00;99.90;;;;;;5110014;28;20311;-60
2024/03/14 05:27:34;;;;;;;12.77;10.07;;;8.00;99.90;;;;;;5109825;28;20580;-61
2024/03/14 05:30:01;;;;;;;11.70;8.63;;;8.00;99.90;;;;;;5109630;28;20213;-62
2024/03/14 05:32:28;;;;;;;12.27;8.88;;;8.00;99.90;;;;;;5110323;28;20586;-61
2024/03/14 05:34:55;;;;;;;13.70;10.00;;;8.00;99.90;;;;;;5109687;28;20230;-61
2024/03/14 05:37:22;;;;;;;10.40;7.47;;;8.00;99.90;;;;;;5109648;28;20300;-61
2024/03/14 05:39:49;;;;;;;9.73;8.73;;;8.00;99.90;;;;;;5109379;28;20439;-62
2024/03/14 05:42:18;;;;;;;10.70;7.90;;;8.00;99.90;;;;;;5109550;28;20229;-61
2024/03/14 05:44:47;;;;;;;13.45;8.55;;;8.00;99.90;;;;;;5109314;28;20478;-61
2024/03/14 05:47:14;;;;;;;11.50;9.15;;;8.10;99.90;;;;;;5112630;28;20227;-61
2024/03/14 05:49:41;;;;;;;13.10;9.45;;;8.10;99.90;;;;;;5095154;28;20250;-62
2024/03/14 05:52:10;;;;;;;12.73;8.93;;;8.10;99.90;;;;;;5103499;28;20674;-62
2024/03/14 05:54:37;;;;;;;13.07;9.13;;;8.10;99.90;;;;;;5105403;28;20599;-62
2024/03/14 05:57:04;;;;;;;12.23;9.10;;;8.10;99.90;;;;;;5094402;28;20204;-61
2024/03/14 05:59:31;;;;;;;11.40;9.23;;;8.20;99.90;;;;;;5095231;28;20438;-61
2024/03/14 06:01:58;;;;;;;12.03;10.20;;;8.10;99.90;;;;;;5103579;28;20474;-62
2024/03/14 06:04:25;;;;;;;10.17;8.20;;;8.20;99.90;;;;;;5094870;28;20847;-61
2024/03/14 06:06:52;;;;;;;14.00;9.60;;;8.20;99.90;;;;;;5095224;28;20434;-62
2024/03/14 06:09:31;;;;;;;10.52;7.68;;;8.20;99.90;;;;;;5094938;28;20434;-61
2024/03/14 06:11:58;;;;;;;12.73;10.10;;;8.30;99.90;;;;;;5103522;28;20612;-62
2024/03/14 06:14:25;;;;;;;10.47;8.07;;;8.30;99.90;;;;;;5103374;28;20991;-61
2024/03/14 06:16:52;;;;;;;9.77;8.13;;;8.30;99.90;;;;;;5095169;28;20437;-62
2024/03/14 06:19:21;;;;;;;11.20;8.53;;;8.30;99.90;;;;;;5103222;28;20446;-62
2024/03/14 06:21:50;;;;;;;9.27;8.37;;;8.40;99.90;;;;;;5111967;28;20489;-60
2024/03/14 06:24:16;;;;;;;9.15;8.02;;;8.40;99.90;;;;;;5112197;28;20497;-62
2024/03/14 06:26:45;;;;;;;11.40;8.40;;;8.40;99.90;;;;;;5112483;28;20215;-61
2024/03/14 06:29:12;;;;;;;12.90;8.15;;;8.50;99.90;;;;;;5112268;28;20529;-60
2024/03/14 06:31:38;;;;;;;13.90;8.77;;;8.50;99.90;;;;;;5111511;28;20205;-62
2024/03/14 06:34:05;;;;;;;12.27;7.80;;;8.60;99.90;;;;;;5112157;28;20470;-60
2024/03/14 06:36:32;;;;;;;13.88;10.00;;;8.60;99.90;;;;;;5112159;28;20441;-61
2024/03/14 06:39:05;;;;;;;12.00;9.57;;;8.60;99.90;;;;;;5112067;28;20204;-60
2024/03/14 06:41:32;;;;;;;9.63;8.60;;;8.70;99.90;;;;;;5111755;28;20529;-61
2024/03/14 06:43:59;;;;;;;16.10;8.07;;;8.70;99.90;;;;;;5112018;28;20473;-62
2024/03/14 06:46:28;;;;;;;11.43;9.47;;;8.80;99.90;;;;;;5112095;28;20451;-62
2024/03/14 06:48:55;;;;;;;11.03;8.50;;;8.80;99.90;;;;;;5111968;28;20446;-62
2024/03/14 06:51:22;;;;;;;11.57;8.57;;;8.90;99.90;;;;;;5111513;28;20446;-61
2024/03/14 06:53:49;;;;;;;12.07;10.00;;;8.90;99.90;;;;;;5111612;28;20462;-59
2024/03/14 06:56:17;;;;;;;12.67;10.20;;;9.00;99.90;;;;;;5111968;28;20453;-61
2024/03/14 06:58:46;;;;;;;10.73;8.43;;;9.00;99.90;;;;;;5111792;28;20515;-61
2024/03/14 07:01:15;;;;;;;12.13;9.53;;;9.10;99.90;;;;;;5111561;28;20523;-62
2024/03/14 07:03:43;;;;;;;8.87;8.00;;;9.10;99.90;;;;;;5111352;28;21033;-62
2024/03/14 07:06:12;;;;;;;10.83;8.90;;;9.20;99.90;;;;;;5111509;28;20442;-62
2024/03/14 07:08:39;;;;;;;9.60;8.60;;;9.20;99.90;;;;;;5111792;28;20462;-62
2024/03/14 07:11:05;;;;;;;10.73;8.47;;;9.30;99.90;;;;;;5111378;28;20444;-62
2024/03/14 07:13:35;;;;;;;13.43;9.40;;;9.30;99.90;;;;;;5111469;28;20886;-62
2024/03/14 07:16:02;;;;;;;13.37;10.57;;;9.40;99.90;;;;;;5111388;28;20872;-61
2024/03/14 07:18:31;;;;;;;8.77;7.87;;;9.40;99.90;;;;;;5111241;28;20447;-61
2024/03/14 07:20:58;;;;;;;10.83;9.30;;;9.50;99.90;;;;;;5111225;28;20445;-62
2024/03/14 07:23:31;;;;;;;12.60;10.70;;;9.50;99.90;;;;;;5111339;28;20485;-61
2024/03/14 07:25:59;;;;;;;12.93;10.30;;;9.60;99.90;;;;;;5111339;28;20450;-61
2024/03/14 07:28:27;;;;;;;13.10;9.83;;;9.70;99.90;;;;;;5111177;28;20550;-61
2024/03/14 07:30:55;;;;;;;10.60;8.53;;;9.80;99.90;;;;;;5110681;28;20442;-61
2024/03/14 07:33:22;;;;;;;16.63;11.17;;;9.80;99.90;;;;;;5111219;28;20569;-62
2024/03/14 07:35:50;;;;;;;14.67;11.03;;;9.90;99.90;;;;;;5105557;28;20557;-62
2024/03/14 07:38:17;;;;;;;17.60;13.30;;;10.00;99.90;;;;;;5109947;28;20474;-62
2024/03/14 07:40:44;;;;;;;11.47;10.30;;;10.00;99.90;;;;;;5104386;28;20449;-62
2024/03/14 07:43:12;;;;;;;18.90;14.63;;;10.10;99.90;;;;;;5097931;28;20501;-62
2024/03/14 07:45:39;;;;;;;13.20;11.70;;;10.20;99.90;;;;;;5110105;28;20470;-62
2024/03/14 07:48:10;;;;;;;17.97;12.90;;;10.20;99.90;;;;;;5103742;28;20448;-62
2024/03/14 07:50:36;;;;;;;16.10;12.50;;;10.30;99.90;;;;;;5101831;28;20442;-61
2024/03/14 07:53:07;;;;;;;14.60;12.97;;;10.50;99.90;;;;;;5098640;28;20443;-62
2024/03/14 07:55:37;;;;;;;15.90;12.13;;;10.60;99.90;;;;;;5109578;28;20466;-61
2024/03/14 07:58:04;;;;;;;15.40;11.60;;;10.70;99.90;;;;;;5109524;28;20456;-62
2024/03/14 08:00:33;;;;;;;16.70;14.00;;;10.70;99.90;;;;;;5101591;28;20444;-61
2024/03/14 08:03:01;;;;;;;17.00;14.70;;;10.90;99.90;;;;;;5109914;28;20485;-62
2024/03/14 08:05:31;;;;;;;16.50;12.17;;;11.00;99.90;;;;;;5109982;28;20586;-62
2024/03/14 08:07:59;;;;;;;20.03;15.80;;;11.10;99.90;;;;;;5101308;28;20446;-62
2024/03/14 08:10:28;;;;;;;18.83;14.50;;;11.30;99.90;;;;;;5109784;28;20457;-62
2024/03/14 08:12:56;;;;;;;20.50;16.20;;;11.30;99.90;;;;;;5110026;28;20449;-62
2024/03/14 08:15:30;;;;;;;22.43;17.33;;;11.50;99.90;;;;;;5108879;28;20987;-62
2024/03/14 08:17:59;;;;;;;21.67;17.47;;;11.60;99.90;;;;;;5107414;28;20438;-62
2024/03/14 08:20:26;;;;;;;16.63;14.63;;;11.70;99.90;;;;;;5105656;28;20929;-62
2024/03/14 08:22:54;;;;;;;19.53;17.47;;;11.90;99.90;;;;;;5109649;28;20568;-61
2024/03/14 08:25:24;;;;;;;22.33;17.20;;;12.00;99.90;;;;;;5109385;28;20927;-62
2024/03/14 08:27:51;;;;;;;18.80;14.10;;;12.10;99.90;;;;;;5109748;28;20450;-62
2024/03/14 08:30:19;;;;;;;22.30;16.70;;;12.20;99.90;;;;;;5109635;28;20465;-62
2024/03/14 08:32:46;;;;;;;19.70;16.80;;;12.40;99.90;;;;;;5109912;28;20525;-63
2024/03/14 08:35:14;;;;;;;16.80;14.40;;;12.50;99.90;;;;;;5100927;28;20462;-63
2024/03/14 08:37:43;;;;;;;15.13;12.83;;;12.70;99.90;;;;;;5103147;28;20448;-62
2024/03/14 08:40:11;;;;;;;17.00;14.23;;;12.80;99.90;;;;;;5092985;28;20442;-62
2024/03/14 08:42:39;;;;;;;16.17;14.53;;;13.00;99.90;;;;;;5109482;28;21252;-63
2024/03/14 08:45:09;;;;;;;15.53;14.00;;;13.10;99.90;;;;;;5109714;28;20465;-62
2024/03/14 08:47:36;;;;;;;16.13;14.50;;;13.20;99.90;;;;;;5109677;28;20454;-62
2024/03/14 08:50:05;;;;;;;16.43;14.60;;;13.30;99.90;;;;;;5108719;28;20982;-62
2024/03/14 08:52:32;;;;;;;15.07;13.47;;;13.50;99.90;;;;;;5095117;28;20503;-62
2024/03/14 08:55:00;;;;;;;15.70;12.70;;;13.60;99.90;;;;;;5106276;28;20462;-62
2024/03/14 08:57:27;;;;;;;16.73;13.70;;;13.70;99.90;;;;;;5102122;28;20447;-63
2024/03/14 08:59:54;;;;;;;15.17;12.93;;;13.80;99.90;;;;;;5113644;28;20904;-63
2024/03/14 09:02:23;;;;;;;13.70;12.20;;;13.80;99.90;;;;;;5113009;28;20586;-62
2024/03/14 09:04:51;;;;;;;13.13;11.83;;;13.90;99.90;;;;;;5108176;28;20465;-61
2024/03/14 09:07:18;;;;;;;17.27;14.53;;;13.90;99.90;;;;;;5101085;28;20454;-62
2024/03/14 09:09:45;;;;;;;12.20;10.97;;;14.00;99.90;;;;;;5113149;28;20453;-63
2024/03/14 09:12:17;;;;;;;15.07;13.47;;;14.00;99.90;;;;;;5113577;28;20473;-62
2024/03/14 09:14:44;;;;;;;15.80;13.20;;;14.10;99.90;;;;;;5113146;28;20873;-62
2024/03/14 09:17:12;;;;;;;16.40;13.47;;;14.20;99.90;;;;;;5113141;28;20452;-63
2024/03/14 09:19:39;;;;;;;14.00;12.60;;;14.20;99.90;;;;;;5096419;28;20947;-63
2024/03/14 09:22:06;;;;;;;13.30;12.00;;;14.30;99.90;;;;;;5112860;28;20453;-63
2024/03/14 09:24:33;;;;;;;14.57;12.00;;;14.40;99.90;;;;;;5113232;28;20486;-63
2024/03/14 09:27:02;;;;;;;13.17;11.87;;;14.50;99.90;;;;;;5111982;28;21166;-63
2024/03/14 09:29:29;;;;;;;12.57;10.50;;;14.70;99.90;;;;;;5112355;28;20499;-62
2024/03/14 09:31:57;;;;;;;12.30;10.97;;;14.80;99.90;;;;;;5112137;28;20442;-63
2024/03/14 09:34:24;;;;;;;13.63;12.00;;;15.00;99.90;;;;;;5112261;28;20468;-63
2024/03/14 09:36:53;;;;;;;10.40;9.40;;;15.20;99.90;;;;;;5112554;28;20520;-63
2024/03/14 09:39:21;;;;;;;9.73;8.67;;;15.40;99.90;;;;;;5112431;28;20859;-63
2024/03/14 09:41:48;;;;;;;11.60;8.97;;;15.50;99.90;;;;;;5112017;28;20462;-63
2024/03/14 09:44:15;;;;;;;8.63;7.63;;;15.60;99.90;;;;;;5112248;28;20489;-63
2024/03/14 09:46:44;;;;;;;9.17;8.27;;;15.70;99.90;;;;;;5107852;28;20813;-62
2024/03/14 09:49:12;;;;;;;7.60;6.43;;;15.80;99.90;;;;;;5100478;28;20450;-62
2024/03/14 09:51:40;;;;;;;7.97;7.27;;;15.80;99.90;;;;;;5111526;28;20533;-62
2024/03/14 09:54:07;;;;;;;9.17;7.53;;;15.90;99.90;;;;;;5112308;28;20458;-63
2024/03/14 09:56:34;;;;;;;9.13;7.83;;;16.00;99.90;;;;;;5098714;28;20453;-63
2024/03/14 09:59:02;;;;;;;7.70;7.00;;;16.20;99.90;;;;;;5112207;28;20465;-63
2024/03/14 10:01:29;;;;;;;7.23;6.60;;;16.30;99.90;;;;;;5111721;28;20478;-63
2024/03/14 10:03:57;;;;;;;9.10;7.67;;;16.40;99.90;;;;;;5108822;28;20869;-62
2024/03/14 10:06:24;;;;;;;7.37;6.67;;;16.40;99.90;;;;;;5104569;28;20454;-63
2024/03/14 10:08:51;;;;;;;8.13;7.43;;;16.50;99.90;;;;;;5087905;28;20534;-63
2024/03/14 10:11:20;;;;;;;7.90;7.23;;;16.60;99.90;;;;;;5104541;28;20451;-63
2024/03/14 10:13:47;;;;;;;7.90;7.20;;;16.60;99.90;;;;;;5090672;28;20454;-63
2024/03/14 10:16:15;;;;;;;9.80;7.87;;;16.60;99.90;;;;;;5106675;28;20451;-62
2024/03/14 10:18:43;;;;;;;6.07;5.57;;;16.60;99.90;;;;;;5108918;28;20525;-62
2024/03/14 10:21:10;;;;;;;7.90;7.20;;;16.60;99.90;;;;;;5093396;28;20840;-62
2024/03/14 10:23:37;;;;;;;8.40;7.40;;;16.40;99.90;;;;;;5102106;28;20509;-63
2024/03/14 10:26:04;;;;;;;6.53;6.03;;;16.40;99.90;;;;;;5109830;28;20451;-62
2024/03/14 10:28:33;;;;;;;8.33;7.63;;;16.40;99.90;;;;;;5106406;28;20843;-62
2024/03/14 10:31:04;;;;;;;7.60;7.00;;;16.30;99.90;;;;;;5105317;28;20457;-63
2024/03/14 10:33:32;;;;;;;7.00;6.33;;;16.40;99.90;;;;;;5109471;28;20449;-62
2024/03/14 10:35:59;;;;;;;6.90;6.33;;;16.40;99.90;;;;;;5101899;28;20442;-62
2024/03/14 10:38:26;;;;;;;6.23;5.70;;;16.40;99.90;;;;;;5103732;28;20971;-63
2024/03/14 10:40:57;;;;;;;8.83;6.80;;;16.50;99.90;;;;;;5105141;28;20540;-62
2024/03/14 10:43:25;;;;;;;6.30;5.70;;;16.40;99.90;;;;;;5106158;28;20874;-63
2024/03/14 10:45:53;;;;;;;6.70;6.00;;;16.40;99.90;;;;;;5106041;28;20452;-62
2024/03/14 10:48:25;;;;;;;6.23;5.20;;;16.40;99.90;;;;;;5107281;28;20941;-62
2024/03/14 10:50:54;;;;;;;5.07;4.50;;;16.40;99.90;;;;;;5103026;28;20474;-62
2024/03/14 10:53:25;;;;;;;5.67;4.43;;;16.50;99.90;;;;;;5098169;28;20438;-63
2024/03/14 10:55:55;;;;;;;4.17;3.87;;;16.60;99.90;;;;;;5109928;28;20450;-63
2024/03/14 10:58:21;;;;;;;3.80;3.50;;;16.70;99.90;;;;;;5110601;28;20431;-62
2024/03/14 11:00:49;;;;;;;3.07;2.83;;;16.70;99.90;;;;;;5102617;28;20533;-63
2024/03/14 11:03:18;;;;;;;2.90;2.70;;;16.90;99.90;;;;;;5109643;28;20563;-63
2024/03/14 11:05:48;;;;;;;3.30;3.10;;;17.00;99.90;;;;;;5104743;28;20856;-63
2024/03/14 11:08:16;;;;;;;3.43;3.13;;;17.30;99.90;;;;;;5109141;27;20446;-63
2024/03/14 11:10:43;;;;;;;3.23;3.03;;;17.50;99.90;;;;;;5106710;27;20881;-62
2024/03/14 11:13:11;;;;;;;4.03;3.67;;;17.60;99.90;;;;;;5109739;27;20430;-62
2024/03/14 11:15:38;;;;;;;3.53;3.23;;;17.60;99.90;;;;;;5097548;28;20474;-63
2024/03/14 11:18:07;;;;;;;3.20;3.00;;;17.60;99.90;;;;;;5101889;27;20450;-62
2024/03/14 11:20:34;;;;;;;4.20;3.90;;;17.60;99.90;;;;;;5106631;28;20458;-63
2024/03/14 11:23:01;;;;;;;5.60;4.17;;;17.70;99.90;;;;;;5094397;28;20439;-63
2024/03/14 11:25:28;;;;;;;3.20;3.00;;;17.70;99.90;;;;;;5097342;28;20473;-63
2024/03/14 11:27:56;;;;;;;3.90;3.60;;;17.80;99.90;;;;;;5108795;28;20434;-63
2024/03/14 11:30:24;;;;;;;3.47;3.10;;;17.80;99.90;;;;;;5108122;28;20458;-63
2024/03/14 11:32:54;;;;;;;3.20;2.90;;;17.80;99.90;;;;;;5108993;28;20497;-63
2024/03/14 11:35:32;;;;;;;3.30;3.10;;;17.90;99.90;;;;;;5108640;28;20458;-63
2024/03/14 11:38:04;;;;;;;3.53;3.30;;;17.90;99.90;;;;;;5092532;28;20484;-63
2024/03/14 11:40:33;;;;;;;4.10;3.70;;;17.90;99.90;;;;;;5090683;28;20443;-62
2024/03/14 11:43:00;;;;;;;2.90;2.70;;;17.80;99.90;;;;;;5092546;28;20461;-63
2024/03/14 11:45:31;;;;;;;3.10;2.87;;;17.80;99.90;;;;;;5106650;28;20466;-63
2024/03/14 11:47:59;;;;;;;4.20;3.30;;;17.90;99.90;;;;;;5109238;28;20443;-63
2024/03/14 11:50:30;;;;;;;2.93;2.70;;;18.00;99.90;;;;;;5099706;27;20449;-63
2024/03/14 11:52:57;;;;;;;3.90;3.60;;;18.20;99.90;;;;;;5127817;27;20941;-63
2024/03/14 11:55:24;;;;;;;3.23;2.93;;;18.20;99.90;;;;;;5119282;27;20600;-63
2024/03/14 11:57:51;;;;;;;2.83;2.63;;;18.40;99.90;;;;;;5085381;28;20430;-63
2024/03/14 12:00:25;;;;;;;3.33;3.13;;;18.60;99.80;;;;;;5109738;28;20503;-62
2024/03/14 12:02:52;;;;;;;2.67;2.47;;;18.50;99.90;;;;;;5094310;28;20458;-63
2024/03/14 12:05:25;;;;;;;3.13;2.43;;;18.50;99.90;;;;;;5093221;28;20572;-63
2024/03/14 12:07:54;;;;;;;3.70;3.40;;;18.40;99.90;;;;;;5094141;28;20591;-63
2024/03/14 12:10:22;;;;;;;3.23;3.00;;;18.50;99.80;;;;;;5093198;28;20537;-63
2024/03/14 12:12:51;;;;;;;2.97;2.77;;;18.70;99.90;;;;;;5088234;28;20442;-63
2024/03/14 12:15:20;;;;;;;3.37;3.10;;;18.80;99.90;;;;;;5092963;28;20809;-62
2024/03/14 12:17:54;;;;;;;2.23;2.13;;;19.00;99.30;;;;;;5109376;28;20435;-63
2024/03/14 12:20:22;;;;;;;2.63;2.33;;;19.10;98.30;;;;;;5109458;28;20452;-62
2024/03/14 12:22:51;;;;;;;2.67;2.47;;;19.30;99.30;;;;;;5093373;28;20457;-63
2024/03/14 12:25:19;;;;;;;2.20;1.97;;;19.30;98.10;;;;;;5093211;28;20899;-63
2024/03/14 12:27:46;;;;;;;3.17;2.40;;;19.30;98.70;;;;;;5092909;28;20442;-62
2024/03/14 12:30:16;;;;;;;2.00;1.90;;;19.40;97.00;;;;;;5092634;28;20446;-63
2024/03/14 12:32:43;;;;;;;2.13;2.00;;;19.50;97.60;;;;;;5093236;28;20457;-62
2024/03/14 12:35:11;;;;;;;3.63;1.90;;;19.60;98.20;;;;;;5092559;28;20993;-63
2024/03/14 12:37:38;;;;;;;1.90;1.80;;;19.80;97.80;;;;;;5093025;28;20442;-63
2024/03/14 12:40:07;;;;;;;1.70;1.60;;;19.90;97.90;;;;;;5092786;28;20658;-63
2024/03/14 12:42:35;;;;;;;3.17;1.90;;;20.20;97.30;;;;;;5092972;28;20470;-63
2024/03/14 12:45:02;;;;;;;1.73;1.63;;;20.50;96.20;;;;;;5092824;28;20488;-63
2024/03/14 12:47:29;;;;;;;2.10;2.00;;;20.90;97.00;;;;;;5092739;28;20808;-63